Zephyr Point, Nevada
Current Conditions -  °F | °C
As of 2:53 PM on Tuesday 27 Jan 2015 (Local Time) from KTVL Reporting Station
Overcast Overcast  
Wind Chill: 39°   Ceiling: 4800
Heat Index: 39°   Visibility: 10mi
Dew Point: 33°   Wind: 3mph
Humidity: 79%   Direction: 170°S
Pressure: 30.25"   Gusts: NA
Location:  39.0164°N, 119.925°W
Report Text: KTVL 272253Z AUTO 17003KT 10SM FEW007 OVC048 04/01 A3025 RMK AO2 RAE45 SLP232 P0000 T00390006
Loading
Personal Weather Stations






























Interactive Weather Map New forecast layout! Learn more

10-Day Weather Forecast

Advertisements
Track Severe Weather on mobile